Time;durP1;ratioP1;P1;durP2;ratioP2;P2;SDS_P1;SDS_P2;PMS_P1;PMS_P2;Temp;Humidity;BMP_temperature;BMP_pressure;BME280_temperature;BME280_humidity;BME280_pressure;Samples;Min_cycle;Max_cycle;Signal;HPM_P1;HPM_P2
2021/09/26 00:08:56;;;;;;;11.65;4.13;;;15.80;99.90;;;;;;20547904;28;20106;-80
2021/09/26 00:18:58;;;;;;;10.43;4.68;;;15.70;99.90;;;;;;20525424;28;20054;-80
2021/09/26 00:28:59;;;;;;;10.77;4.18;;;15.50;99.90;;;;;;20526231;28;20081;-79
2021/09/26 00:39:00;;;;;;;9.25;4.10;;;15.60;99.90;;;;;;20505561;28;20046;-80
2021/09/26 00:49:01;;;;;;;9.02;3.80;;;15.60;99.90;;;;;;20554876;28;20050;-79
2021/09/26 00:59:02;;;;;;;9.32;4.68;;;15.70;99.90;;;;;;20503994;28;20054;-79
2021/09/26 01:09:25;;;;;;;7.82;3.80;;;15.60;99.90;;;;;;20512120;28;20043;-80
2021/09/26 01:19:55;;;;;;;10.80;4.55;;;15.70;99.90;;;;;;20556143;28;20081;-80
2021/09/26 01:30:17;;;;;;;8.35;3.67;;;15.70;99.90;;;;;;20521877;28;20054;-80
2021/09/26 01:40:28;;;;;;;9.80;4.93;;;15.80;99.90;;;;;;20548698;28;20054;-80
2021/09/26 01:50:31;;;;;;;10.30;4.57;;;15.80;99.90;;;;;;20547179;28;20108;-81
2021/09/26 02:00:33;;;;;;;11.98;5.00;;;15.70;99.90;;;;;;20494165;28;20059;-81
2021/09/26 02:10:36;;;;;;;9.32;4.20;;;15.50;99.90;;;;;;20501886;28;20062;-80
2021/09/26 02:20:38;;;;;;;8.32;3.90;;;15.50;99.90;;;;;;20557105;28;20122;-80
2021/09/26 02:40:56;;;;;;;10.90;4.60;;;15.30;99.90;;;;;;21287013;23;20185;-81
2021/09/26 02:51:00;;;;;;;10.82;4.28;;;15.30;99.90;;;;;;20623656;28;20051;-81
2021/09/26 03:01:01;;;;;;;8.80;4.47;;;15.20;99.90;;;;;;20561907;28;20051;-79
2021/09/26 03:11:03;;;;;;;13.93;5.40;;;15.20;99.90;;;;;;20578543;28;20093;-79
2021/09/26 03:21:04;;;;;;;11.70;4.63;;;15.20;99.90;;;;;;20566825;28;20126;-78
2021/09/26 03:31:05;;;;;;;9.80;4.43;;;15.40;99.90;;;;;;20558001;28;20054;-79
2021/09/26 03:41:07;;;;;;;12.45;5.20;;;15.50;99.90;;;;;;20440598;28;20058;-78
2021/09/26 03:51:08;;;;;;;11.68;5.15;;;15.50;99.90;;;;;;20517872;28;20061;-79
2021/09/26 04:01:09;;;;;;;11.93;4.13;;;15.50;99.90;;;;;;20508602;28;20058;-78
2021/09/26 04:11:10;;;;;;;11.48;4.53;;;15.60;99.90;;;;;;20522346;28;20516;-79
2021/09/26 04:21:16;;;;;;;12.02;4.95;;;15.60;99.90;;;;;;20508916;28;20065;-78
2021/09/26 04:31:17;;;;;;;14.40;4.85;;;15.40;99.90;;;;;;20557871;28;20062;-78
2021/09/26 04:41:18;;;;;;;11.45;4.50;;;15.50;99.90;;;;;;20544139;28;20585;-79
2021/09/26 04:51:20;;;;;;;11.07;5.22;;;15.60;99.90;;;;;;20507360;28;20047;-79
2021/09/26 05:01:21;;;;;;;9.65;4.85;;;15.60;99.90;;;;;;20439417;28;20894;-78
2021/09/26 05:11:23;;;;;;;14.85;6.20;;;15.60;99.90;;;;;;20522409;28;20058;-78
2021/09/26 05:21:24;;;;;;;9.88;4.38;;;15.60;99.90;;;;;;20469963;28;20889;-79
2021/09/26 05:31:25;;;;;;;9.60;4.38;;;15.60;99.90;;;;;;20477700;28;20074;-79
2021/09/26 05:41:26;;;;;;;9.98;4.47;;;15.70;99.90;;;;;;20450342;28;20510;-78
2021/09/26 05:51:27;;;;;;;10.63;4.22;;;15.70;99.90;;;;;;20530786;28;20050;-81
2021/09/26 06:01:28;;;;;;;12.45;5.45;;;15.60;99.90;;;;;;20560642;28;20122;-79
2021/09/26 06:11:31;;;;;;;13.50;5.20;;;15.70;99.90;;;;;;20458823;28;20052;-79
2021/09/26 06:21:32;;;;;;;9.35;5.00;;;15.70;99.90;;;;;;20495856;28;20054;-79
2021/09/26 06:31:34;;;;;;;13.30;5.10;;;15.60;99.90;;;;;;20547266;28;20054;-78
2021/09/26 06:41:35;;;;;;;13.57;6.00;;;15.60;99.90;;;;;;20458532;28;20146;-80
2021/09/26 06:51:36;;;;;;;11.77;5.78;;;15.60;99.90;;;;;;20485660;28;20146;-79
2021/09/26 07:01:37;;;;;;;11.90;5.78;;;15.70;99.90;;;;;;20421231;28;20058;-79
2021/09/26 07:11:39;;;;;;;15.00;5.78;;;15.70;99.90;;;;;;20466776;28;20214;-79
2021/09/26 07:21:40;;;;;;;13.43;6.20;;;15.80;99.90;;;;;;20444295;28;20139;-79
2021/09/26 07:31:41;;;;;;;12.52;5.50;;;15.80;99.90;;;;;;20461564;28;20058;-79
2021/09/26 07:41:43;;;;;;;12.18;5.28;;;15.90;99.90;;;;;;20535540;28;20603;-79
2021/09/26 07:51:45;;;;;;;10.32;5.07;;;16.00;99.90;;;;;;20568363;28;20098;-79
2021/09/26 08:01:48;;;;;;;10.98;5.05;;;16.20;99.90;;;;;;20509576;28;20169;-79
2021/09/26 08:11:49;;;;;;;16.42;7.75;;;16.40;99.90;;;;;;20502853;28;20072;-79
2021/09/26 08:21:50;;;;;;;14.88;6.97;;;16.60;99.90;;;;;;20518501;28;20045;-79
2021/09/26 08:31:51;;;;;;;13.25;7.07;;;16.70;99.90;;;;;;20537167;28;20073;-78
2021/09/26 08:41:54;;;;;;;14.90;6.22;;;17.10;99.90;;;;;;20502030;28;20039;-79
2021/09/26 08:51:55;;;;;;;14.50;6.47;;;17.10;99.90;;;;;;20556236;28;20069;-81
2021/09/26 09:01:56;;;;;;;13.13;6.85;;;17.30;99.90;;;;;;20506891;28;20041;-78
2021/09/26 09:12:02;;;;;;;15.70;6.43;;;17.60;99.90;;;;;;20489368;28;20075;-79
2021/09/26 09:22:07;;;;;;;14.55;6.63;;;17.70;99.90;;;;;;20510961;28;20768;-79
2021/09/26 09:32:18;;;;;;;11.82;6.85;;;18.10;99.90;;;;;;20549404;28;20109;-79
2021/09/26 09:42:21;;;;;;;12.05;6.13;;;18.40;99.90;;;;;;20440411;28;20055;-79
2021/09/26 09:52:52;;;;;;;17.17;7.68;;;18.80;99.90;;;;;;20449738;28;20151;-80
2021/09/26 10:02:54;;;;;;;14.63;8.18;;;19.10;99.90;;;;;;20435937;28;20068;-80
2021/09/26 10:13:12;;;;;;;14.73;7.05;;;19.60;99.90;;;;;;20405184;28;20440;-80
2021/09/26 10:23:14;;;;;;;13.77;7.45;;;19.90;99.90;;;;;;20447599;28;20509;-80
2021/09/26 10:33:15;;;;;;;12.48;6.50;;;20.50;99.90;;;;;;20459037;28;20054;-78
2021/09/26 10:43:19;;;;;;;12.32;5.90;;;20.90;99.90;;;;;;20534835;28;20051;-79
2021/09/26 10:53:20;;;;;;;10.40;5.18;;;21.40;99.90;;;;;;20526128;28;20057;-78
2021/09/26 11:03:37;;;;;;;10.82;5.15;;;21.40;99.90;;;;;;20539750;28;20502;-77
2021/09/26 11:13:56;;;;;;;10.13;5.15;;;22.10;99.90;;;;;;20546158;28;20047;-77
2021/09/26 11:24:01;;;;;;;10.77;5.03;;;22.70;99.90;;;;;;20536989;28;20043;-77
2021/09/26 11:34:02;;;;;;;11.30;6.53;;;23.10;99.90;;;;;;20510886;28;20126;-77
2021/09/26 11:44:06;;;;;;;8.25;4.07;;;23.30;99.90;;;;;;20574012;28;20050;-77
2021/09/26 11:54:08;;;;;;;8.20;3.58;;;23.90;99.90;;;;;;20554625;28;20129;-77
2021/09/26 12:04:14;;;;;;;8.52;3.88;;;24.30;99.90;;;;;;20534688;28;20521;-81
2021/09/26 12:14:24;;;;;;;5.67;2.77;;;24.50;99.90;;;;;;20518257;28;20498;-77
2021/09/26 12:24:31;;;;;;;6.35;3.70;;;25.00;99.90;;;;;;20492134;28;20061;-77
2021/09/26 12:34:35;;;;;;;8.50;4.10;;;24.80;99.90;;;;;;20514862;28;20043;-77
2021/09/26 12:44:38;;;;;;;8.88;3.80;;;25.00;99.90;;;;;;20507886;28;20058;-77
2021/09/26 12:54:45;;;;;;;6.85;3.10;;;24.90;99.90;;;;;;20537593;28;20175;-78
2021/09/26 13:05:12;;;;;;;24.63;4.20;;;25.10;99.90;;;;;;20507313;28;20393;-77
2021/09/26 13:15:13;;;;;;;7.87;3.60;;;25.30;99.90;;;;;;20521944;28;20059;-77
2021/09/26 13:25:21;;;;;;;7.68;3.95;;;24.10;99.90;;;;;;20552951;28;20042;-77
2021/09/26 13:35:27;;;;;;;8.98;3.33;;;23.80;99.90;;;;;;20510115;28;20043;-77
2021/09/26 13:45:29;;;;;;;10.17;3.87;;;23.20;99.90;;;;;;20550208;28;20046;-78
2021/09/26 13:55:30;;;;;;;7.45;3.83;;;22.90;99.90;;;;;;20516975;28;20063;-77
2021/09/26 14:05:32;;;;;;;5.53;2.80;;;22.80;99.90;;;;;;20456270;28;20106;-77
2021/09/26 14:15:35;;;;;;;8.07;3.88;;;22.80;99.90;;;;;;20493895;28;20058;-77
2021/09/26 14:25:39;;;;;;;6.53;3.63;;;22.70;99.90;;;;;;20512642;28;20380;-77
2021/09/26 14:35:40;;;;;;;9.57;4.85;;;22.70;99.90;;;;;;20489869;28;21129;-77
2021/09/26 14:45:42;;;;;;;9.43;4.70;;;22.70;99.90;;;;;;20531893;28;20047;-77
2021/09/26 14:55:46;;;;;;;6.63;3.42;;;22.90;99.90;;;;;;20526982;28;20055;-77
2021/09/26 15:05:47;;;;;;;7.00;2.90;;;23.10;99.90;;;;;;20512741;28;20531;-77
2021/09/26 15:15:50;;;;;;;5.15;2.65;;;22.90;99.90;;;;;;20477238;28;20055;-77
2021/09/26 15:25:51;;;;;;;6.55;3.10;;;22.50;99.90;;;;;;20534820;28;20043;-78
2021/09/26 15:35:52;;;;;;;6.75;3.15;;;22.40;99.90;;;;;;20513054;28;20085;-78
2021/09/26 15:45:56;;;;;;;8.07;2.92;;;22.50;99.90;;;;;;20436671;28;20051;-78
2021/09/26 15:55:57;;;;;;;7.32;3.63;;;22.50;99.90;;;;;;20473457;28;20414;-78
2021/09/26 16:05:59;;;;;;;6.10;3.25;;;22.30;99.90;;;;;;20440480;28;20055;-78
2021/09/26 16:16:00;;;;;;;6.50;2.88;;;22.30;99.90;;;;;;20474736;28;20062;-77
2021/09/26 16:26:03;;;;;;;8.40;3.88;;;22.20;99.90;;;;;;20442669;28;20072;-78
2021/09/26 16:36:08;;;;;;;7.97;4.22;;;22.10;99.90;;;;;;20443639;28;20141;-78
2021/09/26 16:46:11;;;;;;;6.82;3.47;;;21.90;99.90;;;;;;20474543;28;20384;-78
2021/09/26 16:56:12;;;;;;;5.28;3.30;;;21.80;99.90;;;;;;20423215;28;20094;-78
2021/09/26 17:06:13;;;;;;;8.60;4.45;;;21.60;99.90;;;;;;20422534;28;20402;-78
2021/09/26 17:16:15;;;;;;;6.00;3.17;;;21.40;99.90;;;;;;20413480;28;20058;-79
2021/09/26 17:26:17;;;;;;;6.32;2.90;;;21.20;99.90;;;;;;20454459;28;20040;-79
2021/09/26 17:36:20;;;;;;;5.22;2.30;;;20.90;99.90;;;;;;20461367;28;20543;-79
2021/09/26 17:46:25;;;;;;;5.00;2.47;;;20.80;99.90;;;;;;20502049;28;20518;-79
2021/09/26 17:56:26;;;;;;;6.93;2.78;;;20.70;99.90;;;;;;20559330;28;20052;-79
2021/09/26 18:06:29;;;;;;;5.25;2.95;;;20.50;99.90;;;;;;20505570;28;20487;-79
2021/09/26 18:16:31;;;;;;;4.93;2.90;;;20.40;99.90;;;;;;20494940;28;20424;-79
2021/09/26 18:26:33;;;;;;;5.80;2.88;;;20.30;99.90;;;;;;20565352;28;20038;-79
2021/09/26 18:36:35;;;;;;;7.18;3.25;;;20.20;99.90;;;;;;20565714;28;20130;-79
2021/09/26 18:46:37;;;;;;;9.23;3.55;;;20.10;99.90;;;;;;20557461;28;20500;-79
2021/09/26 18:56:40;;;;;;;6.00;3.42;;;20.00;99.90;;;;;;20536794;28;20058;-79
2021/09/26 19:06:42;;;;;;;5.80;3.20;;;19.80;99.90;;;;;;20567472;28;20058;-79
2021/09/26 19:16:43;;;;;;;5.18;2.20;;;19.80;99.90;;;;;;20578324;28;20133;-79
2021/09/26 19:26:44;;;;;;;7.22;2.88;;;19.70;99.90;;;;;;20512936;28;20541;-79
2021/09/26 19:36:45;;;;;;;4.95;2.63;;;19.50;99.90;;;;;;20559251;28;20067;-79
2021/09/26 19:46:47;;;;;;;5.00;2.45;;;19.30;99.90;;;;;;20517499;28;20526;-79
2021/09/26 19:56:50;;;;;;;5.28;2.80;;;19.20;99.90;;;;;;20571337;28;20089;-79
2021/09/26 20:06:51;;;;;;;5.68;2.28;;;19.00;99.90;;;;;;20561803;28;20477;-79
2021/09/26 20:16:52;;;;;;;5.40;2.42;;;18.90;99.90;;;;;;20475255;28;20624;-79
2021/09/26 20:26:53;;;;;;;5.53;2.40;;;18.80;99.90;;;;;;20522645;28;20055;-79
2021/09/26 20:36:54;;;;;;;4.60;2.55;;;18.80;99.90;;;;;;20528584;28;20519;-79
2021/09/26 20:46:57;;;;;;;4.85;2.75;;;18.70;99.90;;;;;;20513899;28;20054;-80
2021/09/26 20:56:58;;;;;;;5.47;2.55;;;18.60;99.90;;;;;;20542265;28;20069;-79
2021/09/26 21:06:59;;;;;;;6.93;3.10;;;18.50;99.90;;;;;;20543263;28;20054;-79
2021/09/26 21:17:00;;;;;;;7.05;3.17;;;18.40;99.90;;;;;;20511983;28;20594;-79
2021/09/26 21:27:02;;;;;;;7.80;2.88;;;18.30;99.90;;;;;;20553803;28;20062;-79
2021/09/26 21:37:03;;;;;;;6.97;3.05;;;18.20;99.90;;;;;;20535422;28;20061;-79
2021/09/26 21:47:04;;;;;;;7.57;3.20;;;18.00;99.90;;;;;;20601043;28;20050;-79
2021/09/26 21:57:07;;;;;;;6.00;3.10;;;18.00;99.90;;;;;;20540131;28;20875;-79
2021/09/26 22:07:08;;;;;;;6.07;3.05;;;17.90;99.90;;;;;;20553550;28;20085;-79
2021/09/26 22:17:09;;;;;;;8.27;3.53;;;17.90;99.90;;;;;;20548785;28;20772;-79
2021/09/26 22:27:10;;;;;;;6.47;2.83;;;18.00;99.90;;;;;;20532455;28;21163;-80
2021/09/26 22:37:11;;;;;;;5.75;3.10;;;18.00;99.90;;;;;;20493396;28;21350;-80
2021/09/26 22:47:12;;;;;;;6.78;3.17;;;17.90;99.90;;;;;;20514893;28;20043;-80
2021/09/26 22:57:14;;;;;;;6.03;3.08;;;17.90;99.90;;;;;;20472384;28;20062;-79
2021/09/26 23:07:15;;;;;;;9.40;3.28;;;17.80;99.90;;;;;;20481419;28;20065;-80
2021/09/26 23:17:17;;;;;;;7.85;2.72;;;17.80;99.90;;;;;;20524160;28;20060;-79
2021/09/26 23:27:18;;;;;;;8.48;3.72;;;17.70;99.90;;;;;;20524072;28;20048;-80
2021/09/26 23:37:19;;;;;;;7.20;3.85;;;17.60;99.90;;;;;;20486330;28;20434;-80
2021/09/26 23:47:20;;;;;;;8.23;2.92;;;17.60;99.90;;;;;;20495305;28;20051;-80
2021/09/26 23:57:22;;;;;;;7.95;3.50;;;17.50;99.90;;;;;;20473101;28;20136;-80
